sensor_id;sensor_type;location;lat;lon;timestamp;temperature;humidity
429;DHT22;201;48.758;9.290;2023-03-24T00:00:25;13.80;1.00
429;DHT22;201;48.758;9.290;2023-03-24T00:02:51;13.90;1.00
429;DHT22;201;48.758;9.290;2023-03-24T00:05:19;13.90;1.00
429;DHT22;201;48.758;9.290;2023-03-24T00:07:45;13.80;1.00
429;DHT22;201;48.758;9.290;2023-03-24T00:10:14;13.80;1.00
429;DHT22;201;48.758;9.290;2023-03-24T00:12:43;13.80;1.00
429;DHT22;201;48.758;9.290;2023-03-24T00:15:19;13.80;1.00
429;DHT22;201;48.758;9.290;2023-03-24T00:17:47;13.80;1.00
429;DHT22;201;48.758;9.290;2023-03-24T00:20:15;13.90;1.00
429;DHT22;201;48.758;9.290;2023-03-24T00:22:43;13.90;1.00
429;DHT22;201;48.758;9.290;2023-03-24T00:25:15;14.00;1.00
429;DHT22;201;48.758;9.290;2023-03-24T00:27:41;14.00;1.00
429;DHT22;201;48.758;9.290;2023-03-24T00:30:09;14.00;1.00
429;DHT22;201;48.758;9.290;2023-03-24T00:32:35;13.90;1.00
429;DHT22;201;48.758;9.290;2023-03-24T00:35:04;14.00;1.00
429;DHT22;201;48.758;9.290;2023-03-24T00:37:31;14.00;1.00
429;DHT22;201;48.758;9.290;2023-03-24T00:39:56;14.00;1.00
429;DHT22;201;48.758;9.290;2023-03-24T00:42:22;14.00;1.00
429;DHT22;201;48.758;9.290;2023-03-24T00:44:49;14.00;1.00
429;DHT22;201;48.758;9.290;2023-03-24T00:47:15;13.90;1.00
429;DHT22;201;48.758;9.290;2023-03-24T00:49:42;13.80;1.00
429;DHT22;201;48.758;9.290;2023-03-24T00:52:10;13.70;1.00
429;DHT22;201;48.758;9.290;2023-03-24T00:54:37;13.70;1.00
429;DHT22;201;48.758;9.290;2023-03-24T00:57:03;13.70;1.00
429;DHT22;201;48.758;9.290;2023-03-24T00:59:29;13.70;1.00
429;DHT22;201;48.758;9.290;2023-03-24T01:01:55;13.70;1.00
429;DHT22;201;48.758;9.290;2023-03-24T01:04:23;13.70;1.00
429;DHT22;201;48.758;9.290;2023-03-24T01:06:52;13.70;1.00
429;DHT22;201;48.758;9.290;2023-03-24T01:09:23;13.70;1.00
429;DHT22;201;48.758;9.290;2023-03-24T01:11:48;13.70;1.00
429;DHT22;201;48.758;9.290;2023-03-24T01:14:14;13.70;1.00
429;DHT22;201;48.758;9.290;2023-03-24T01:16:40;13.70;1.00
429;DHT22;201;48.758;9.290;2023-03-24T01:19:07;13.60;1.00
429;DHT22;201;48.758;9.290;2023-03-24T01:21:34;13.60;1.00
429;DHT22;201;48.758;9.290;2023-03-24T01:24:01;13.50;1.00
429;DHT22;201;48.758;9.290;2023-03-24T01:26:27;13.40;1.00
429;DHT22;201;48.758;9.290;2023-03-24T01:28:53;13.40;1.00
429;DHT22;201;48.758;9.290;2023-03-24T01:31:18;13.40;1.00
429;DHT22;201;48.758;9.290;2023-03-24T01:33:44;13.30;1.00
429;DHT22;201;48.758;9.290;2023-03-24T01:36:10;13.20;1.00
429;DHT22;201;48.758;9.290;2023-03-24T01:38:36;13.20;1.00
429;DHT22;201;48.758;9.290;2023-03-24T01:41:03;13.20;1.00
429;DHT22;201;48.758;9.290;2023-03-24T01:43:30;13.20;1.00
429;DHT22;201;48.758;9.290;2023-03-24T01:51:20;13.50;1.00
429;DHT22;201;48.758;9.290;2023-03-24T01:53:58;13.70;1.00
429;DHT22;201;48.758;9.290;2023-03-24T01:56:24;13.70;1.00
429;DHT22;201;48.758;9.290;2023-03-24T01:58:55;13.80;1.00
429;DHT22;201;48.758;9.290;2023-03-24T02:01:23;13.80;1.00
429;DHT22;201;48.758;9.290;2023-03-24T02:03:58;13.70;1.00
429;DHT22;201;48.758;9.290;2023-03-24T02:06:24;13.70;1.00
429;DHT22;201;48.758;9.290;2023-03-24T02:08:55;13.70;1.00
429;DHT22;201;48.758;9.290;2023-03-24T02:11:23;13.70;1.00
429;DHT22;201;48.758;9.290;2023-03-24T02:13:49;13.70;1.00
429;DHT22;201;48.758;9.290;2023-03-24T02:16:28;13.80;1.00
429;DHT22;201;48.758;9.290;2023-03-24T02:27:26;14.10;1.00
429;DHT22;201;48.758;9.290;2023-03-24T02:38:32;14.20;1.00
429;DHT22;201;48.758;9.290;2023-03-24T02:49:40;14.10;1.00
429;DHT22;201;48.758;9.290;2023-03-24T02:52:17;14.00;1.00
429;DHT22;201;48.758;9.290;2023-03-24T02:55:14;14.00;1.00
429;DHT22;201;48.758;9.290;2023-03-24T02:58:07;14.00;1.00
429;DHT22;201;48.758;9.290;2023-03-24T03:00:40;14.00;1.00
429;DHT22;201;48.758;9.290;2023-03-24T03:03:15;14.00;1.00
429;DHT22;201;48.758;9.290;2023-03-24T03:06:08;14.20;1.00
429;DHT22;201;48.758;9.290;2023-03-24T03:08:39;14.20;1.00
429;DHT22;201;48.758;9.290;2023-03-24T03:11:07;14.20;1.00
429;DHT22;201;48.758;9.290;2023-03-24T03:13:39;14.30;1.00
429;DHT22;201;48.758;9.290;2023-03-24T03:16:18;14.30;1.00
429;DHT22;201;48.758;9.290;2023-03-24T03:18:52;14.40;1.00
429;DHT22;201;48.758;9.290;2023-03-24T03:21:22;14.40;1.00
429;DHT22;201;48.758;9.290;2023-03-24T03:23:55;14.30;1.00
429;DHT22;201;48.758;9.290;2023-03-24T03:26:23;14.30;1.00
429;DHT22;201;48.758;9.290;2023-03-24T03:28:56;14.30;1.00
429;DHT22;201;48.758;9.290;2023-03-24T03:31:38;14.40;1.00
429;DHT22;201;48.758;9.290;2023-03-24T03:37:31;14.40;1.00
429;DHT22;201;48.758;9.290;2023-03-24T03:40:06;14.30;1.00
429;DHT22;201;48.758;9.290;2023-03-24T03:42:34;14.30;1.00
429;DHT22;201;48.758;9.290;2023-03-24T03:45:00;14.20;1.00
429;DHT22;201;48.758;9.290;2023-03-24T03:47:26;14.20;1.00
429;DHT22;201;48.758;9.290;2023-03-24T03:49:52;14.20;1.00
429;DHT22;201;48.758;9.290;2023-03-24T03:52:18;14.10;1.00
429;DHT22;201;48.758;9.290;2023-03-24T03:54:44;14.10;1.00
429;DHT22;201;48.758;9.290;2023-03-24T03:57:11;14.10;1.00
429;DHT22;201;48.758;9.290;2023-03-24T03:59:39;14.10;1.00
429;DHT22;201;48.758;9.290;2023-03-24T04:02:12;14.10;1.00
429;DHT22;201;48.758;9.290;2023-03-24T04:04:47;14.10;1.00
429;DHT22;201;48.758;9.290;2023-03-24T04:07:33;14.20;1.00
429;DHT22;201;48.758;9.290;2023-03-24T04:10:20;14.20;1.00
429;DHT22;201;48.758;9.290;2023-03-24T04:15:57;14.10;1.00
429;DHT22;201;48.758;9.290;2023-03-24T04:24:20;14.10;1.00
429;DHT22;201;48.758;9.290;2023-03-24T04:30:11;14.00;1.00
429;DHT22;201;48.758;9.290;2023-03-24T04:32:58;14.00;1.00
429;DHT22;201;48.758;9.290;2023-03-24T04:35:32;14.00;1.00
429;DHT22;201;48.758;9.290;2023-03-24T04:38:10;14.00;1.00
429;DHT22;201;48.758;9.290;2023-03-24T04:40:38;14.00;1.00
429;DHT22;201;48.758;9.290;2023-03-24T04:43:08;14.00;1.00
429;DHT22;201;48.758;9.290;2023-03-24T04:45:34;14.10;1.00
429;DHT22;201;48.758;9.290;2023-03-24T04:48:03;14.20;1.00
429;DHT22;201;48.758;9.290;2023-03-24T04:50:34;14.20;1.00
429;DHT22;201;48.758;9.290;2023-03-24T04:53:01;14.30;1.00
429;DHT22;201;48.758;9.290;2023-03-24T04:58:15;14.40;1.00
429;DHT22;201;48.758;9.290;2023-03-24T05:00:41;14.40;1.00
429;DHT22;201;48.758;9.290;2023-03-24T05:03:12;14.50;1.00
429;DHT22;201;48.758;9.290;2023-03-24T05:05:42;14.50;1.00
429;DHT22;201;48.758;9.290;2023-03-24T05:08:08;14.50;1.00
429;DHT22;201;48.758;9.290;2023-03-24T05:10:35;14.50;1.00
429;DHT22;201;48.758;9.290;2023-03-24T05:13:02;14.60;1.00
429;DHT22;201;48.758;9.290;2023-03-24T05:15:28;14.60;1.00
429;DHT22;201;48.758;9.290;2023-03-24T05:17:54;14.60;1.00
429;DHT22;201;48.758;9.290;2023-03-24T05:20:19;14.60;1.00
429;DHT22;201;48.758;9.290;2023-03-24T05:22:45;14.70;1.00
429;DHT22;201;48.758;9.290;2023-03-24T05:25:11;14.70;1.00
429;DHT22;201;48.758;9.290;2023-03-24T05:27:37;14.70;1.00
429;DHT22;201;48.758;9.290;2023-03-24T05:30:04;14.70;1.00
429;DHT22;201;48.758;9.290;2023-03-24T05:32:31;14.70;1.00
429;DHT22;201;48.758;9.290;2023-03-24T05:34:56;14.70;1.00
429;DHT22;201;48.758;9.290;2023-03-24T05:37:22;14.70;1.00
429;DHT22;201;48.758;9.290;2023-03-24T05:39:47;14.70;1.00
429;DHT22;201;48.758;9.290;2023-03-24T05:42:15;14.70;1.00
429;DHT22;201;48.758;9.290;2023-03-24T05:44:41;14.60;1.00
429;DHT22;201;48.758;9.290;2023-03-24T05:47:07;14.50;1.00
429;DHT22;201;48.758;9.290;2023-03-24T05:49:32;14.50;1.00
429;DHT22;201;48.758;9.290;2023-03-24T05:51:58;14.40;1.00
429;DHT22;201;48.758;9.290;2023-03-24T05:54:24;14.30;1.00
429;DHT22;201;48.758;9.290;2023-03-24T05:56:50;14.20;1.00
429;DHT22;201;48.758;9.290;2023-03-24T05:59:16;14.10;1.00
429;DHT22;201;48.758;9.290;2023-03-24T06:01:42;14.10;1.00
429;DHT22;201;48.758;9.290;2023-03-24T06:04:07;13.90;1.00
429;DHT22;201;48.758;9.290;2023-03-24T06:06:33;13.90;1.00
429;DHT22;201;48.758;9.290;2023-03-24T06:08:59;13.80;1.00
429;DHT22;201;48.758;9.290;2023-03-24T06:11:27;13.80;1.00
429;DHT22;201;48.758;9.290;2023-03-24T06:13:53;13.70;1.00
429;DHT22;201;48.758;9.290;2023-03-24T06:16:45;13.70;1.00
429;DHT22;201;48.758;9.290;2023-03-24T06:19:17;13.60;1.00
429;DHT22;201;48.758;9.290;2023-03-24T06:21:47;13.40;1.00
429;DHT22;201;48.758;9.290;2023-03-24T06:24:15;13.40;1.00
429;DHT22;201;48.758;9.290;2023-03-24T06:26:41;13.50;1.00
429;DHT22;201;48.758;9.290;2023-03-24T06:29:09;13.50;1.00
429;DHT22;201;48.758;9.290;2023-03-24T06:31:35;13.40;1.00
429;DHT22;201;48.758;9.290;2023-03-24T06:34:04;13.40;1.00
429;DHT22;201;48.758;9.290;2023-03-24T06:36:31;13.30;1.00
429;DHT22;201;48.758;9.290;2023-03-24T06:38:59;13.30;1.00
429;DHT22;201;48.758;9.290;2023-03-24T06:41:26;13.20;1.00
429;DHT22;201;48.758;9.290;2023-03-24T06:43:52;13.20;1.00
429;DHT22;201;48.758;9.290;2023-03-24T06:46:17;13.10;1.00
429;DHT22;201;48.758;9.290;2023-03-24T06:48:43;13.00;1.00
429;DHT22;201;48.758;9.290;2023-03-24T06:51:08;12.90;1.00
429;DHT22;201;48.758;9.290;2023-03-24T06:53:35;12.90;1.00
429;DHT22;201;48.758;9.290;2023-03-24T06:56:02;12.90;1.00
429;DHT22;201;48.758;9.290;2023-03-24T06:58:27;12.90;1.00
429;DHT22;201;48.758;9.290;2023-03-24T07:00:53;12.90;1.00
429;DHT22;201;48.758;9.290;2023-03-24T07:03:19;12.90;1.10
429;DHT22;201;48.758;9.290;2023-03-24T07:05:47;12.90;2.10
429;DHT22;201;48.758;9.290;2023-03-24T07:08:13;12.90;2.80
429;DHT22;201;48.758;9.290;2023-03-24T07:10:39;12.80;2.80
429;DHT22;201;48.758;9.290;2023-03-24T07:13:06;12.80;2.80
429;DHT22;201;48.758;9.290;2023-03-24T07:15:32;12.80;2.80
429;DHT22;201;48.758;9.290;2023-03-24T07:17:58;12.70;3.30
429;DHT22;201;48.758;9.290;2023-03-24T07:20:23;12.70;4.10
429;DHT22;201;48.758;9.290;2023-03-24T07:22:49;12.70;4.30
429;DHT22;201;48.758;9.290;2023-03-24T07:25:15;12.70;5.30
429;DHT22;201;48.758;9.290;2023-03-24T07:27:45;12.60;6.20
429;DHT22;201;48.758;9.290;2023-03-24T07:30:12;12.60;6.90
429;DHT22;201;48.758;9.290;2023-03-24T07:32:38;12.50;7.20
429;DHT22;201;48.758;9.290;2023-03-24T07:35:06;12.50;8.30
429;DHT22;201;48.758;9.290;2023-03-24T07:37:31;12.40;8.90
429;DHT22;201;48.758;9.290;2023-03-24T07:39:57;12.40;9.30
429;DHT22;201;48.758;9.290;2023-03-24T07:42:23;12.30;10.30
429;DHT22;201;48.758;9.290;2023-03-24T07:44:50;12.30;11.20
429;DHT22;201;48.758;9.290;2023-03-24T07:47:15;12.20;11.10
429;DHT22;201;48.758;9.290;2023-03-24T07:49:41;12.20;12.20
429;DHT22;201;48.758;9.290;2023-03-24T07:52:07;12.20;12.00
429;DHT22;201;48.758;9.290;2023-03-24T07:54:32;12.10;12.40
429;DHT22;201;48.758;9.290;2023-03-24T07:56:59;12.10;12.70
429;DHT22;201;48.758;9.290;2023-03-24T07:59:24;12.10;13.40
429;DHT22;201;48.758;9.290;2023-03-24T08:01:51;12.10;13.70
429;DHT22;201;48.758;9.290;2023-03-24T08:04:17;12.10;14.00
429;DHT22;201;48.758;9.290;2023-03-24T08:06:43;12.10;14.40
429;DHT22;201;48.758;9.290;2023-03-24T08:09:08;12.10;14.30
429;DHT22;201;48.758;9.290;2023-03-24T08:11:35;12.10;14.40
429;DHT22;201;48.758;9.290;2023-03-24T08:14:01;12.10;14.90
429;DHT22;201;48.758;9.290;2023-03-24T08:16:27;12.10;15.00
429;DHT22;201;48.758;9.290;2023-03-24T08:18:52;12.10;14.90
429;DHT22;201;48.758;9.290;2023-03-24T08:21:18;12.10;15.40
429;DHT22;201;48.758;9.290;2023-03-24T08:23:44;12.10;15.30
429;DHT22;201;48.758;9.290;2023-03-24T08:26:09;12.10;15.40
429;DHT22;201;48.758;9.290;2023-03-24T08:28:36;12.20;15.40
429;DHT22;201;48.758;9.290;2023-03-24T08:31:02;12.20;15.40
429;DHT22;201;48.758;9.290;2023-03-24T08:33:28;12.30;15.50
429;DHT22;201;48.758;9.290;2023-03-24T08:35:53;12.40;15.40
429;DHT22;201;48.758;9.290;2023-03-24T08:38:23;12.40;15.20
429;DHT22;201;48.758;9.290;2023-03-24T08:40:57;12.40;14.70
429;DHT22;201;48.758;9.290;2023-03-24T08:43:23;12.50;14.70
429;DHT22;201;48.758;9.290;2023-03-24T08:45:50;12.50;14.00
429;DHT22;201;48.758;9.290;2023-03-24T08:48:16;12.60;13.80
429;DHT22;201;48.758;9.290;2023-03-24T08:50:42;12.80;13.20
429;DHT22;201;48.758;9.290;2023-03-24T08:53:08;12.80;12.30
429;DHT22;201;48.758;9.290;2023-03-24T08:55:34;12.90;11.60
429;DHT22;201;48.758;9.290;2023-03-24T08:58:02;12.80;11.60
429;DHT22;201;48.758;9.290;2023-03-24T09:00:28;12.80;11.60
429;DHT22;201;48.758;9.290;2023-03-24T09:02:55;12.80;11.60
429;DHT22;201;48.758;9.290;2023-03-24T09:05:22;12.80;11.60
429;DHT22;201;48.758;9.290;2023-03-24T09:07:48;12.90;11.60
429;DHT22;201;48.758;9.290;2023-03-24T09:10:15;13.00;11.70
429;DHT22;201;48.758;9.290;2023-03-24T09:12:42;13.00;11.70
429;DHT22;201;48.758;9.290;2023-03-24T09:15:09;13.00;12.30
429;DHT22;201;48.758;9.290;2023-03-24T09:17:36;13.00;11.70
429;DHT22;201;48.758;9.290;2023-03-24T09:20:03;13.00;11.70
429;DHT22;201;48.758;9.290;2023-03-24T09:22:32;13.10;11.80
429;DHT22;201;48.758;9.290;2023-03-24T09:25:00;13.10;11.80
429;DHT22;201;48.758;9.290;2023-03-24T09:27:26;13.10;11.60
429;DHT22;201;48.758;9.290;2023-03-24T09:29:51;13.10;11.80
429;DHT22;201;48.758;9.290;2023-03-24T09:32:18;13.10;10.90
429;DHT22;201;48.758;9.290;2023-03-24T09:34:43;13.20;10.90
429;DHT22;201;48.758;9.290;2023-03-24T09:37:09;13.30;10.50
429;DHT22;201;48.758;9.290;2023-03-24T09:39:35;13.40;10.10
429;DHT22;201;48.758;9.290;2023-03-24T09:42:03;13.50;9.30
429;DHT22;201;48.758;9.290;2023-03-24T09:44:36;13.50;8.80
429;DHT22;201;48.758;9.290;2023-03-24T09:47:04;13.60;8.50
429;DHT22;201;48.758;9.290;2023-03-24T09:49:33;13.80;8.10
429;DHT22;201;48.758;9.290;2023-03-24T09:52:12;14.00;7.10
429;DHT22;201;48.758;9.290;2023-03-24T09:54:51;14.10;6.20
429;DHT22;201;48.758;9.290;2023-03-24T09:57:28;14.10;6.00
429;DHT22;201;48.758;9.290;2023-03-24T09:59:56;14.30;5.40
429;DHT22;201;48.758;9.290;2023-03-24T10:02:22;14.30;3.90
429;DHT22;201;48.758;9.290;2023-03-24T10:04:48;14.30;2.70
429;DHT22;201;48.758;9.290;2023-03-24T10:09:39;14.70;2.10
429;DHT22;201;48.758;9.290;2023-03-24T10:17:45;15.70;1.00
429;DHT22;201;48.758;9.290;2023-03-24T10:20:30;15.40;1.00
429;DHT22;201;48.758;9.290;2023-03-24T10:23:31;15.20;1.00
429;DHT22;201;48.758;9.290;2023-03-24T10:31:29;14.90;1.00
429;DHT22;201;48.758;9.290;2023-03-24T10:33:55;15.00;1.00
429;DHT22;201;48.758;9.290;2023-03-24T10:36:21;15.40;1.00
429;DHT22;201;48.758;9.290;2023-03-24T10:38:47;15.50;1.00
429;DHT22;201;48.758;9.290;2023-03-24T10:41:17;15.60;1.00
429;DHT22;201;48.758;9.290;2023-03-24T10:43:44;15.50;1.00
429;DHT22;201;48.758;9.290;2023-03-24T10:46:14;15.60;1.00
429;DHT22;201;48.758;9.290;2023-03-24T10:48:46;15.60;1.00
429;DHT22;201;48.758;9.290;2023-03-24T10:51:22;15.50;1.00
429;DHT22;201;48.758;9.290;2023-03-24T10:53:50;15.50;1.00
429;DHT22;201;48.758;9.290;2023-03-24T10:56:41;15.30;1.00
429;DHT22;201;48.758;9.290;2023-03-24T10:59:24;15.30;1.00
429;DHT22;201;48.758;9.290;2023-03-24T11:01:59;15.30;1.00
429;DHT22;201;48.758;9.290;2023-03-24T11:04:25;15.20;1.00
429;DHT22;201;48.758;9.290;2023-03-24T11:07:00;15.20;1.00
429;DHT22;201;48.758;9.290;2023-03-24T11:09:28;15.20;1.00
429;DHT22;201;48.758;9.290;2023-03-24T11:11:54;15.10;1.00
429;DHT22;201;48.758;9.290;2023-03-24T11:14:22;15.20;1.00
429;DHT22;201;48.758;9.290;2023-03-24T11:16:50;15.40;1.00
429;DHT22;201;48.758;9.290;2023-03-24T11:19:22;15.40;1.00
429;DHT22;201;48.758;9.290;2023-03-24T11:21:50;15.40;1.00
429;DHT22;201;48.758;9.290;2023-03-24T11:24:18;15.80;1.00
429;DHT22;201;48.758;9.290;2023-03-24T11:26:58;16.00;1.00
429;DHT22;201;48.758;9.290;2023-03-24T11:29:30;16.00;1.00
429;DHT22;201;48.758;9.290;2023-03-24T11:32:09;16.20;1.00
429;DHT22;201;48.758;9.290;2023-03-24T11:34:42;16.20;1.00
429;DHT22;201;48.758;9.290;2023-03-24T11:37:33;16.10;1.00
429;DHT22;201;48.758;9.290;2023-03-24T11:40:29;16.20;1.00
429;DHT22;201;48.758;9.290;2023-03-24T11:42:59;16.20;1.00
429;DHT22;201;48.758;9.290;2023-03-24T11:45:28;16.00;1.00
429;DHT22;201;48.758;9.290;2023-03-24T11:47:58;16.00;1.00
429;DHT22;201;48.758;9.290;2023-03-24T11:50:30;16.00;1.00
429;DHT22;201;48.758;9.290;2023-03-24T11:53:11;15.90;1.00
429;DHT22;201;48.758;9.290;2023-03-24T11:58:28;15.60;1.00
429;DHT22;201;48.758;9.290;2023-03-24T12:03:56;15.40;1.00
429;DHT22;201;48.758;9.290;2023-03-24T12:09:23;15.70;1.00
429;DHT22;201;48.758;9.290;2023-03-24T12:14:41;15.80;1.00
429;DHT22;201;48.758;9.290;2023-03-24T12:17:12;15.90;1.00
429;DHT22;201;48.758;9.290;2023-03-24T12:19:42;15.80;1.00
429;DHT22;201;48.758;9.290;2023-03-24T12:25:21;15.70;1.00
429;DHT22;201;48.758;9.290;2023-03-24T12:36:49;15.30;1.00
429;DHT22;201;48.758;9.290;2023-03-24T12:42:14;15.00;1.00
429;DHT22;201;48.758;9.290;2023-03-24T12:55:06;14.80;1.00
429;DHT22;201;48.758;9.290;2023-03-24T12:57:50;14.70;1.00
429;DHT22;201;48.758;9.290;2023-03-24T13:00:32;14.80;1.00
429;DHT22;201;48.758;9.290;2023-03-24T13:03:01;14.80;1.00
429;DHT22;201;48.758;9.290;2023-03-24T13:05:34;14.90;1.00
429;DHT22;201;48.758;9.290;2023-03-24T13:08:06;14.80;1.00
429;DHT22;201;48.758;9.290;2023-03-24T13:10:38;14.80;1.00
429;DHT22;201;48.758;9.290;2023-03-24T13:13:20;15.00;1.00
429;DHT22;201;48.758;9.290;2023-03-24T13:18:28;15.30;1.00
429;DHT22;201;48.758;9.290;2023-03-24T13:21:18;15.30;1.00
429;DHT22;201;48.758;9.290;2023-03-24T13:26:39;15.20;1.00
429;DHT22;201;48.758;9.290;2023-03-24T13:34:55;14.80;1.00
429;DHT22;201;48.758;9.290;2023-03-24T13:37:25;14.70;1.00
429;DHT22;201;48.758;9.290;2023-03-24T13:39:59;14.70;1.00
429;DHT22;201;48.758;9.290;2023-03-24T13:42:31;14.70;1.00
429;DHT22;201;48.758;9.290;2023-03-24T13:44:59;14.80;1.00
429;DHT22;201;48.758;9.290;2023-03-24T13:47:25;14.70;1.00
429;DHT22;201;48.758;9.290;2023-03-24T13:50:04;14.70;1.00
429;DHT22;201;48.758;9.290;2023-03-24T13:52:39;14.70;1.00
429;DHT22;201;48.758;9.290;2023-03-24T13:55:21;14.60;1.00
429;DHT22;201;48.758;9.290;2023-03-24T13:58:00;14.70;1.00
429;DHT22;201;48.758;9.290;2023-03-24T14:00:29;14.60;1.00
429;DHT22;201;48.758;9.290;2023-03-24T14:05:56;14.60;1.00
429;DHT22;201;48.758;9.290;2023-03-24T14:19:20;14.70;1.00
429;DHT22;201;48.758;9.290;2023-03-24T14:22:07;14.40;1.00
429;DHT22;201;48.758;9.290;2023-03-24T14:24:35;13.90;1.00
429;DHT22;201;48.758;9.290;2023-03-24T14:27:29;13.70;1.00
429;DHT22;201;48.758;9.290;2023-03-24T14:29:59;13.20;1.00
429;DHT22;201;48.758;9.290;2023-03-24T14:32:26;12.70;2.00
429;DHT22;201;48.758;9.290;2023-03-24T14:34:55;12.50;2.90
429;DHT22;201;48.758;9.290;2023-03-24T14:37:23;12.20;4.00
429;DHT22;201;48.758;9.290;2023-03-24T14:39:49;12.20;5.40
429;DHT22;201;48.758;9.290;2023-03-24T14:47:58;11.70;7.00
429;DHT22;201;48.758;9.290;2023-03-24T14:50:25;11.70;8.20
429;DHT22;201;48.758;9.290;2023-03-24T14:52:58;11.70;7.70
429;DHT22;201;48.758;9.290;2023-03-24T14:55:26;11.70;7.90
429;DHT22;201;48.758;9.290;2023-03-24T14:58:00;11.70;8.40
429;DHT22;201;48.758;9.290;2023-03-24T15:00:38;11.60;8.00
429;DHT22;201;48.758;9.290;2023-03-24T15:03:48;11.60;8.20
429;DHT22;201;48.758;9.290;2023-03-24T15:06:19;11.70;8.40
429;DHT22;201;48.758;9.290;2023-03-24T15:08:55;11.80;7.80
429;DHT22;201;48.758;9.290;2023-03-24T15:11:26;11.80;8.00
429;DHT22;201;48.758;9.290;2023-03-24T15:13:53;11.70;8.50
429;DHT22;201;48.758;9.290;2023-03-24T15:16:25;11.70;8.40
429;DHT22;201;48.758;9.290;2023-03-24T15:19:22;11.70;8.50
429;DHT22;201;48.758;9.290;2023-03-24T15:21:51;11.70;9.20
429;DHT22;201;48.758;9.290;2023-03-24T15:27:12;11.60;10.20
429;DHT22;201;48.758;9.290;2023-03-24T15:29:36;11.50;10.60
429;DHT22;201;48.758;9.290;2023-03-24T15:32:03;11.40;12.20
429;DHT22;201;48.758;9.290;2023-03-24T15:34:40;11.40;12.70
429;DHT22;201;48.758;9.290;2023-03-24T15:37:37;11.40;13.60
429;DHT22;201;48.758;9.290;2023-03-24T15:40:05;11.40;13.50
429;DHT22;201;48.758;9.290;2023-03-24T15:42:31;11.30;13.20
429;DHT22;201;48.758;9.290;2023-03-24T15:45:18;11.30;14.00
429;DHT22;201;48.758;9.290;2023-03-24T15:47:45;11.40;14.30
429;DHT22;201;48.758;9.290;2023-03-24T15:50:37;11.50;14.00
429;DHT22;201;48.758;9.290;2023-03-24T15:53:23;11.50;14.10
429;DHT22;201;48.758;9.290;2023-03-24T15:56:02;11.50;12.80
429;DHT22;201;48.758;9.290;2023-03-24T15:58:29;11.50;10.60
429;DHT22;201;48.758;9.290;2023-03-24T16:00:59;11.30;8.50
429;DHT22;201;48.758;9.290;2023-03-24T16:03:28;11.30;8.60
429;DHT22;201;48.758;9.290;2023-03-24T16:05:55;11.30;7.30
429;DHT22;201;48.758;9.290;2023-03-24T16:08:33;11.20;5.90
429;DHT22;201;48.758;9.290;2023-03-24T16:11:07;11.20;6.60
429;DHT22;201;48.758;9.290;2023-03-24T16:13:36;11.20;5.40
429;DHT22;201;48.758;9.290;2023-03-24T16:18:44;11.30;6.30
429;DHT22;201;48.758;9.290;2023-03-24T16:21:16;11.30;6.40
429;DHT22;201;48.758;9.290;2023-03-24T16:23:43;11.30;6.70
429;DHT22;201;48.758;9.290;2023-03-24T16:26:23;11.30;6.10
429;DHT22;201;48.758;9.290;2023-03-24T16:28:50;11.40;6.30
429;DHT22;201;48.758;9.290;2023-03-24T16:31:27;11.40;6.20
429;DHT22;201;48.758;9.290;2023-03-24T16:33:55;11.50;6.20
429;DHT22;201;48.758;9.290;2023-03-24T16:36:22;11.50;6.20
429;DHT22;201;48.758;9.290;2023-03-24T16:38:51;11.60;6.20
429;DHT22;201;48.758;9.290;2023-03-24T16:41:17;11.70;5.90
429;DHT22;201;48.758;9.290;2023-03-24T16:43:44;11.70;5.90
429;DHT22;201;48.758;9.290;2023-03-24T16:46:14;11.80;5.70
429;DHT22;201;48.758;9.290;2023-03-24T16:48:41;11.80;5.10
429;DHT22;201;48.758;9.290;2023-03-24T16:51:13;11.80;4.20
429;DHT22;201;48.758;9.290;2023-03-24T16:53:39;11.90;4.20
429;DHT22;201;48.758;9.290;2023-03-24T16:56:06;11.90;3.80
429;DHT22;201;48.758;9.290;2023-03-24T16:58:31;11.90;3.30
429;DHT22;201;48.758;9.290;2023-03-24T17:00:57;12.00;2.70
429;DHT22;201;48.758;9.290;2023-03-24T17:03:24;12.00;2.90
429;DHT22;201;48.758;9.290;2023-03-24T17:05:54;12.00;2.20
429;DHT22;201;48.758;9.290;2023-03-24T17:08:20;12.00;2.20
429;DHT22;201;48.758;9.290;2023-03-24T17:10:48;12.00;2.20
429;DHT22;201;48.758;9.290;2023-03-24T17:13:19;12.00;2.20
429;DHT22;201;48.758;9.290;2023-03-24T17:15:45;11.90;2.10
429;DHT22;201;48.758;9.290;2023-03-24T17:18:11;11.90;2.10
429;DHT22;201;48.758;9.290;2023-03-24T17:20:36;11.80;2.10
429;DHT22;201;48.758;9.290;2023-03-24T17:23:05;11.80;2.00
429;DHT22;201;48.758;9.290;2023-03-24T17:25:32;11.80;2.00
429;DHT22;201;48.758;9.290;2023-03-24T17:27:58;11.70;2.00
429;DHT22;201;48.758;9.290;2023-03-24T17:30:25;11.60;1.90
429;DHT22;201;48.758;9.290;2023-03-24T17:32:51;11.60;1.90
429;DHT22;201;48.758;9.290;2023-03-24T17:35:20;11.60;1.90
429;DHT22;201;48.758;9.290;2023-03-24T17:37:46;11.50;1.80
429;DHT22;201;48.758;9.290;2023-03-24T17:40:13;11.50;1.80
429;DHT22;201;48.758;9.290;2023-03-24T17:42:40;11.40;1.70
429;DHT22;201;48.758;9.290;2023-03-24T17:45:08;11.40;1.70
429;DHT22;201;48.758;9.290;2023-03-24T17:47:35;11.40;1.70
429;DHT22;201;48.758;9.290;2023-03-24T17:50:00;11.30;1.70
429;DHT22;201;48.758;9.290;2023-03-24T17:52:26;11.30;1.70
429;DHT22;201;48.758;9.290;2023-03-24T17:54:52;11.30;1.70
429;DHT22;201;48.758;9.290;2023-03-24T17:57:17;11.30;1.70
429;DHT22;201;48.758;9.290;2023-03-24T17:59:43;11.20;1.30
429;DHT22;201;48.758;9.290;2023-03-24T18:02:11;11.20;1.40
429;DHT22;201;48.758;9.290;2023-03-24T18:04:37;11.20;1.40
429;DHT22;201;48.758;9.290;2023-03-24T18:07:02;11.10;1.00
429;DHT22;201;48.758;9.290;2023-03-24T18:09:31;11.10;1.00
429;DHT22;201;48.758;9.290;2023-03-24T18:11:57;11.10;1.00
429;DHT22;201;48.758;9.290;2023-03-24T18:14:23;11.10;1.00
429;DHT22;201;48.758;9.290;2023-03-24T18:16:48;11.10;1.00
429;DHT22;201;48.758;9.290;2023-03-24T18:19:14;11.00;1.00
429;DHT22;201;48.758;9.290;2023-03-24T18:21:40;11.00;1.00
429;DHT22;201;48.758;9.290;2023-03-24T18:24:06;10.90;1.00
429;DHT22;201;48.758;9.290;2023-03-24T18:26:32;10.90;1.00
429;DHT22;201;48.758;9.290;2023-03-24T18:28:58;10.90;1.00
429;DHT22;201;48.758;9.290;2023-03-24T18:31:24;10.90;1.00
429;DHT22;201;48.758;9.290;2023-03-24T18:33:54;10.80;1.00
429;DHT22;201;48.758;9.290;2023-03-24T18:36:20;10.80;1.00
429;DHT22;201;48.758;9.290;2023-03-24T18:38:57;10.80;1.00
429;DHT22;201;48.758;9.290;2023-03-24T18:41:23;10.80;1.00
429;DHT22;201;48.758;9.290;2023-03-24T18:43:52;10.80;1.00
429;DHT22;201;48.758;9.290;2023-03-24T18:46:18;10.80;1.00
429;DHT22;201;48.758;9.290;2023-03-24T18:48:43;10.80;1.00
429;DHT22;201;48.758;9.290;2023-03-24T18:51:10;10.90;1.00
429;DHT22;201;48.758;9.290;2023-03-24T18:53:36;10.90;1.00
429;DHT22;201;48.758;9.290;2023-03-24T18:56:03;10.80;1.00
429;DHT22;201;48.758;9.290;2023-03-24T18:58:29;10.80;1.00
429;DHT22;201;48.758;9.290;2023-03-24T19:00:56;10.80;1.00
429;DHT22;201;48.758;9.290;2023-03-24T19:03:24;10.80;1.00
429;DHT22;201;48.758;9.290;2023-03-24T19:05:50;10.80;1.00
429;DHT22;201;48.758;9.290;2023-03-24T19:08:20;10.70;1.00
429;DHT22;201;48.758;9.290;2023-03-24T19:10:46;10.70;1.00
429;DHT22;201;48.758;9.290;2023-03-24T19:13:13;10.70;1.00
429;DHT22;201;48.758;9.290;2023-03-24T19:15:40;10.70;1.00
429;DHT22;201;48.758;9.290;2023-03-24T19:18:06;10.70;1.00
429;DHT22;201;48.758;9.290;2023-03-24T19:20:31;10.60;1.00